createdAt,value
2022-09-26T00:00:55.155Z,12.14
2022-09-26T00:06:18.006Z,12.15
2022-09-26T00:11:40.521Z,12.34
2022-09-26T00:17:02.270Z,12.32
2022-09-26T00:22:23.991Z,12.33
2022-09-26T00:27:45.720Z,12.19
2022-09-26T00:33:07.665Z,12.20
2022-09-26T00:38:29.494Z,12.23
2022-09-26T00:43:54.129Z,12.07
2022-09-26T00:49:25.279Z,12.02
2022-09-26T00:54:51.610Z,11.81
2022-09-26T01:00:14.984Z,11.92
2022-09-26T01:05:37.799Z,11.74
2022-09-26T01:11:00.454Z,11.63
2022-09-26T01:16:22.216Z,11.76
2022-09-26T01:22:13.012Z,11.82
2022-09-26T01:28:12.171Z,11.71
2022-09-26T01:33:46.914Z,11.65
2022-09-26T01:39:18.119Z,11.53
2022-09-26T01:44:52.921Z,11.62
2022-09-26T01:50:34.756Z,11.67
2022-09-26T01:56:03.125Z,11.57
2022-09-26T02:01:29.442Z,11.48
2022-09-26T02:06:57.252Z,11.57
2022-09-26T02:12:27.685Z,11.34
2022-09-26T02:17:55.284Z,11.39
2022-09-26T02:23:17.231Z,11.55
2022-09-26T02:28:38.941Z,11.50
2022-09-26T02:34:01.752Z,11.43
2022-09-26T02:39:24.660Z,11.43
2022-09-26T02:45:14.546Z,11.34
2022-09-26T02:51:01.827Z,11.39
2022-09-26T02:56:47.656Z,11.31
2022-09-26T03:02:17.224Z,11.30
2022-09-26T03:07:47.103Z,11.24
2022-09-26T03:13:13.235Z,11.29
2022-09-26T03:19:04.363Z,11.42
2022-09-26T03:24:26.810Z,11.42
2022-09-26T03:29:48.569Z,11.39
2022-09-26T03:35:10.567Z,11.33
2022-09-26T03:40:32.297Z,11.39
2022-09-26T03:45:54.895Z,11.43
2022-09-26T03:51:17.170Z,11.42
2022-09-26T03:56:39.019Z,11.45
2022-09-26T04:02:00.728Z,11.36
2022-09-26T04:07:22.558Z,11.18
2022-09-26T04:12:44.549Z,11.24
2022-09-26T04:18:06.226Z,11.16
2022-09-26T04:23:28.836Z,11.01
2022-09-26T04:28:52.169Z,11.02
2022-09-26T04:34:14.862Z,11.12
2022-09-26T04:39:36.915Z,11.35
2022-09-26T04:44:58.558Z,11.32
2022-09-26T04:50:20.304Z,11.23
2022-09-26T04:55:46.584Z,11.11
2022-09-26T05:01:11.680Z,11.04
2022-09-26T05:06:33.595Z,10.87
2022-09-26T05:11:55.279Z,10.99
2022-09-26T05:17:16.957Z,10.90
2022-09-26T05:22:38.629Z,10.84
2022-09-26T05:28:01.078Z,10.75
2022-09-26T05:33:22.776Z,10.77
2022-09-26T05:38:45.276Z,10.82
2022-09-26T05:44:06.943Z,10.66
2022-09-26T05:49:28.600Z,10.54
2022-09-26T05:54:50.273Z,10.44
2022-09-26T06:00:12.505Z,10.64
2022-09-26T06:05:34.623Z,10.93
2022-09-26T06:11:01.008Z,11.14
2022-09-26T06:16:23.093Z,11.22
2022-09-26T06:21:44.870Z,11.35
2022-09-26T06:27:06.634Z,11.38
2022-09-26T06:32:29.190Z,11.45
2022-09-26T06:37:51.628Z,11.43
2022-09-26T06:43:13.315Z,11.69
2022-09-26T06:48:35.934Z,11.90
2022-09-26T06:53:57.720Z,11.84
2022-09-26T06:59:19.453Z,11.97
2022-09-26T07:04:41.149Z,12.12
2022-09-26T07:10:02.910Z,12.16
2022-09-26T07:15:27.423Z,12.16
2022-09-26T07:20:51.221Z,12.30
2022-09-26T07:26:16.205Z,12.37
2022-09-26T07:31:38.407Z,12.38
2022-09-26T07:37:00.229Z,12.40
2022-09-26T07:42:22.051Z,12.51
2022-09-26T07:48:02.174Z,12.55
2022-09-26T07:53:26.508Z,12.65
2022-09-26T07:58:48.351Z,12.63
2022-09-26T08:04:11.865Z,12.77
2022-09-26T08:09:34.036Z,12.74
2022-09-26T08:14:55.960Z,12.76
2022-09-26T08:20:17.753Z,12.85
2022-09-26T08:25:39.756Z,13.01
2022-09-26T08:31:02.893Z,13.09
2022-09-26T08:36:24.713Z,13.05
2022-09-26T08:42:01.295Z,13.11
2022-09-26T08:47:49.282Z,13.14
2022-09-26T08:53:16.407Z,13.24
2022-09-26T08:58:42.816Z,13.33
2022-09-26T09:04:16.359Z,13.36
2022-09-26T09:09:38.711Z,13.39
2022-09-26T09:15:25.162Z,13.33
2022-09-26T09:21:13.953Z,13.40
2022-09-26T09:32:45.271Z,13.63
2022-09-26T09:38:12.468Z,13.67
2022-09-26T09:43:45.894Z,13.77
2022-09-26T09:49:10.374Z,13.85
2022-09-26T09:54:46.760Z,13.99
2022-09-26T10:00:15.601Z,14.12
2022-09-26T10:05:46.546Z,14.25
2022-09-26T10:11:14.310Z,14.36
2022-09-26T10:16:36.046Z,14.31
2022-09-26T10:21:58.457Z,14.28
2022-09-26T10:27:36.913Z,14.25
2022-09-26T10:33:00.978Z,14.27
2022-09-26T10:38:27.193Z,14.53
2022-09-26T10:43:54.638Z,14.65
2022-09-26T10:49:18.838Z,14.79
2022-09-26T10:55:03.718Z,14.80
2022-09-26T11:00:37.538Z,14.79
2022-09-26T11:05:59.960Z,14.83
2022-09-26T11:11:22.480Z,14.82
2022-09-26T11:16:44.074Z,14.82
2022-09-26T11:22:19.997Z,14.82
2022-09-26T11:28:08.207Z,14.70
2022-09-26T11:33:30.206Z,14.55
2022-09-26T11:39:18.125Z,14.57
2022-09-26T11:44:42.506Z,14.63
2022-09-26T11:50:25.578Z,15.05
2022-09-26T11:56:06.081Z,15.38
2022-09-26T12:01:42.736Z,15.37
2022-09-26T12:07:19.483Z,15.25
2022-09-26T12:12:49.566Z,15.07
2022-09-26T12:18:26.242Z,14.81
2022-09-26T12:23:57.154Z,14.60
2022-09-26T12:29:44.756Z,14.77
2022-09-26T12:35:21.085Z,14.97
2022-09-26T12:40:42.873Z,15.05
2022-09-26T12:46:19.069Z,15.09
2022-09-26T12:51:51.943Z,15.19
2022-09-26T12:57:38.494Z,15.27
2022-09-26T13:03:09.660Z,15.28
2022-09-26T13:09:00.753Z,15.30
2022-09-26T13:14:46.630Z,15.27
2022-09-26T13:20:24.135Z,15.17
2022-09-26T13:26:18.047Z,14.95
2022-09-26T13:31:45.564Z,14.96
2022-09-26T13:37:31.783Z,14.88
2022-09-26T13:43:20.341Z,14.95
2022-09-26T13:49:01.017Z,15.10
2022-09-26T13:54:48.502Z,15.24
2022-09-26T14:00:38.913Z,15.34
2022-09-26T14:06:15.563Z,15.26
2022-09-26T14:11:45.048Z,15.29
2022-09-26T14:17:38.522Z,15.31
2022-09-26T14:23:01.694Z,15.22
2022-09-26T14:28:35.362Z,15.23
2022-09-26T14:34:23.399Z,15.23
2022-09-26T14:39:46.279Z,15.19
2022-09-26T14:45:21.168Z,15.15
2022-09-26T14:50:56.199Z,15.20
2022-09-26T14:56:38.340Z,15.15
2022-09-26T15:02:40.366Z,15.15
2022-09-26T15:08:02.429Z,14.99
2022-09-26T15:13:31.685Z,14.93
2022-09-26T15:19:02.935Z,14.90
2022-09-26T15:24:27.175Z,14.84
2022-09-26T15:29:51.675Z,14.88
2022-09-26T15:35:14.098Z,14.79
2022-09-26T15:40:35.993Z,14.84
2022-09-26T15:45:59.390Z,14.75
2022-09-26T15:51:26.547Z,14.72
2022-09-26T15:56:49.513Z,14.70
2022-09-26T16:02:23.391Z,14.57
2022-09-26T16:07:48.952Z,14.57
2022-09-26T16:13:25.167Z,14.61
2022-09-26T16:19:01.399Z,14.61
2022-09-26T16:24:34.222Z,14.65
2022-09-26T16:30:02.484Z,14.64
2022-09-26T16:35:29.470Z,14.61
2022-09-26T16:40:54.066Z,14.54
2022-09-26T16:46:18.055Z,14.53
2022-09-26T16:51:40.847Z,14.47
2022-09-26T16:57:05.017Z,14.48
2022-09-26T17:02:26.715Z,14.40
2022-09-26T17:07:49.627Z,14.39
2022-09-26T17:13:21.610Z,14.40
2022-09-26T17:18:44.688Z,14.34
2022-09-26T17:24:13.735Z,14.22
2022-09-26T17:29:39.589Z,14.19
2022-09-26T17:35:08.630Z,14.13
2022-09-26T17:40:32.454Z,14.18
2022-09-26T17:45:54.907Z,14.18
2022-09-26T17:51:16.607Z,14.19
2022-09-26T17:56:38.283Z,14.05
2022-09-26T18:02:03.630Z,13.97
2022-09-26T18:07:34.100Z,13.98
2022-09-26T18:13:01.065Z,13.91
2022-09-26T18:18:24.347Z,13.85
2022-09-26T18:23:51.636Z,13.84
2022-09-26T18:29:17.553Z,13.90
2022-09-26T18:34:39.243Z,13.91
2022-09-26T18:40:04.146Z,13.94
2022-09-26T18:45:35.765Z,13.98
2022-09-26T18:50:57.731Z,13.81
2022-09-26T18:56:38.339Z,13.75
2022-09-26T19:02:01.849Z,13.77
2022-09-26T19:07:24.438Z,13.85
2022-09-26T19:12:46.744Z,13.87
2022-09-26T19:18:09.808Z,13.95
2022-09-26T19:23:35.204Z,13.85
2022-09-26T19:28:59.178Z,13.82
2022-09-26T19:34:21.836Z,13.81
2022-09-26T19:39:43.626Z,13.78
2022-09-26T19:45:05.866Z,13.70
2022-09-26T19:50:28.505Z,13.76
2022-09-26T19:55:50.627Z,13.75
2022-09-26T20:01:18.064Z,13.73
2022-09-26T20:06:39.902Z,13.70
2022-09-26T20:12:01.896Z,13.81
2022-09-26T20:17:26.814Z,13.90
2022-09-26T20:22:50.951Z,14.00
2022-09-26T20:28:14.868Z,14.09
2022-09-26T20:33:37.236Z,14.17
2022-09-26T20:39:03.067Z,14.11
2022-09-26T20:44:33.497Z,14.02
2022-09-26T20:49:58.706Z,13.78
2022-09-26T20:55:20.503Z,13.62
2022-09-26T21:00:43.961Z,13.38
2022-09-26T21:06:12.767Z,13.46
2022-09-26T21:11:34.478Z,13.59
2022-09-26T21:16:56.396Z,13.56
2022-09-26T21:22:20.663Z,13.60
2022-09-26T21:27:42.326Z,13.65
2022-09-26T21:33:04.002Z,13.58
2022-09-26T21:38:26.332Z,13.67
2022-09-26T21:43:53.954Z,13.61
2022-09-26T21:49:15.666Z,13.33
2022-09-26T21:54:42.189Z,13.27
2022-09-26T22:00:08.601Z,12.95
2022-09-26T22:05:31.276Z,12.72
2022-09-26T22:10:53.843Z,12.59
2022-09-26T22:16:15.838Z,12.51
2022-09-26T22:21:37.677Z,12.47
2022-09-26T22:26:59.445Z,12.36
2022-09-26T22:32:21.403Z,12.23
2022-09-26T22:37:43.215Z,12.12
2022-09-26T22:43:04.947Z,11.98
2022-09-26T22:48:30.113Z,11.84
2022-09-26T22:53:51.859Z,11.80
2022-09-26T22:59:13.779Z,11.81
2022-09-26T23:04:47.292Z,11.95
2022-09-26T23:10:10.371Z,11.80
2022-09-26T23:15:32.385Z,11.74
2022-09-26T23:20:54.069Z,11.72
2022-09-26T23:26:27.352Z,11.74
2022-09-26T23:31:50.779Z,11.65
2022-09-26T23:37:12.559Z,11.46
2022-09-26T23:42:34.236Z,11.52
2022-09-26T23:47:55.900Z,11.58
2022-09-26T23:53:17.772Z,11.50
2022-09-26T23:58:40.370Z,11.46
